createdAt,value
2022-12-25T00:00:41.717Z,10.35
2022-12-25T00:03:09.480Z,10.43
2022-12-25T00:05:39.009Z,9.52
2022-12-25T00:10:33.891Z,10.73
2022-12-25T00:13:01.097Z,10.45
2022-12-25T00:15:31.438Z,9.98
2022-12-25T00:17:58.656Z,11.02
2022-12-25T00:20:27.165Z,9.43
2022-12-25T00:22:54.818Z,10.32
2022-12-25T00:25:25.355Z,9.75
2022-12-25T00:27:56.121Z,9.65
2022-12-25T00:30:28.426Z,10.57
2022-12-25T00:32:57.201Z,10.40
2022-12-25T00:35:24.706Z,10.02
2022-12-25T00:37:52.209Z,10.65
2022-12-25T00:40:19.846Z,11.65
2022-12-25T00:42:49.948Z,10.35
2022-12-25T00:45:17.476Z,9.45
2022-12-25T00:47:44.921Z,10.48
2022-12-25T00:50:14.431Z,11.75
2022-12-25T00:53:01.085Z,10.73
2022-12-25T00:55:31.976Z,10.32
2022-12-25T00:58:00.009Z,11.20
2022-12-25T01:00:27.969Z,10.93
2022-12-25T01:02:55.409Z,11.30
2022-12-25T01:09:32.926Z,10.57
2022-12-25T01:12:24.361Z,11.98
2022-12-25T01:14:51.668Z,11.63
2022-12-25T01:17:19.137Z,12.10
2022-12-25T01:19:46.656Z,11.40
2022-12-25T01:22:16.399Z,12.13
2022-12-25T01:24:44.807Z,10.88
2022-12-25T01:27:17.568Z,13.50
2022-12-25T01:29:46.532Z,12.02
2022-12-25T01:32:14.387Z,11.77
2022-12-25T01:34:41.933Z,11.02
2022-12-25T01:37:20.175Z,11.88
2022-12-25T01:43:32.399Z,9.88
2022-12-25T01:46:03.912Z,10.32
2022-12-25T01:48:34.314Z,9.82
2022-12-25T01:51:11.891Z,11.00
2022-12-25T01:53:39.347Z,10.95
2022-12-25T01:56:14.200Z,10.18
2022-12-25T01:58:44.797Z,11.20
2022-12-25T02:01:12.513Z,10.13
2022-12-25T02:03:42.491Z,11.00
2022-12-25T02:06:10.014Z,11.23
2022-12-25T02:08:40.612Z,11.55
2022-12-25T02:11:29.497Z,11.55
2022-12-25T02:21:09.756Z,10.60
2022-12-25T02:23:55.636Z,11.63
2022-12-25T02:32:26.696Z,11.98
2022-12-25T02:35:17.196Z,12.45
2022-12-25T02:38:08.125Z,12.82
2022-12-25T02:40:49.104Z,12.88
2022-12-25T02:44:03.946Z,12.38
2022-12-25T02:46:52.836Z,11.90
2022-12-25T02:49:42.305Z,12.10
2022-12-25T02:52:38.849Z,12.15
2022-12-25T02:55:38.693Z,11.80
2022-12-25T02:58:29.738Z,11.85
2022-12-25T03:01:31.600Z,11.48
2022-12-25T03:04:20.703Z,10.68
2022-12-25T03:07:18.890Z,10.40
2022-12-25T03:10:25.632Z,10.85
2022-12-25T03:12:57.327Z,11.52
2022-12-25T03:15:43.685Z,11.95
2022-12-25T03:18:20.007Z,12.35
2022-12-25T03:21:07.140Z,11.52
2022-12-25T03:23:54.471Z,11.90
2022-12-25T03:26:40.417Z,10.68
2022-12-25T03:29:07.670Z,11.07
2022-12-25T03:31:53.010Z,12.25
2022-12-25T03:34:47.949Z,11.15
2022-12-25T03:38:22.165Z,12.20
2022-12-25T03:41:33.729Z,11.50
2022-12-25T03:44:29.850Z,11.98
2022-12-25T03:47:49.824Z,12.10
2022-12-25T04:36:47.926Z,11.15
2022-12-25T04:39:15.108Z,11.50
2022-12-25T04:41:42.276Z,12.15
2022-12-25T04:44:09.990Z,11.98
2022-12-25T04:46:40.122Z,12.95
2022-12-25T04:49:07.317Z,11.88
2022-12-25T04:51:34.480Z,12.73
2022-12-25T04:54:03.132Z,12.98
2022-12-25T04:56:30.384Z,12.45
2022-12-25T04:58:57.595Z,12.25
2022-12-25T05:01:25.031Z,12.32
2022-12-25T05:03:52.452Z,12.52
2022-12-25T05:06:22.360Z,13.65
2022-12-25T05:08:49.546Z,13.48
2022-12-25T05:11:17.374Z,13.93
2022-12-25T05:13:44.539Z,13.63
2022-12-25T05:16:25.535Z,14.05
2022-12-25T05:18:53.067Z,14.25
2022-12-25T05:21:20.597Z,12.55
2022-12-25T05:23:51.230Z,14.30
2022-12-25T05:26:20.471Z,11.95
2022-12-25T05:28:47.698Z,12.07
2022-12-25T05:31:15.315Z,12.63
2022-12-25T05:33:42.568Z,12.30
2022-12-25T05:36:13.402Z,12.00
2022-12-25T05:38:41.919Z,12.48
2022-12-25T05:41:09.800Z,11.80
2022-12-25T05:43:36.960Z,12.05
2022-12-25T05:46:08.168Z,11.55
2022-12-25T05:48:39.079Z,10.88
2022-12-25T05:51:08.279Z,11.77
2022-12-25T05:53:38.719Z,11.75
2022-12-25T05:56:10.099Z,10.95
2022-12-25T05:58:38.736Z,11.55
2022-12-25T06:01:12.588Z,10.52
2022-12-25T06:03:39.827Z,9.10
2022-12-25T06:06:07.347Z,9.60
2022-12-25T06:08:35.017Z,8.95
2022-12-25T06:11:09.748Z,9.80
2022-12-25T06:13:37.625Z,9.00
2022-12-25T06:16:06.714Z,9.95
2022-12-25T06:18:44.251Z,10.00
2022-12-25T06:21:13.303Z,9.48
2022-12-25T06:23:40.689Z,9.48
2022-12-25T06:26:13.134Z,8.85
2022-12-25T06:28:40.616Z,8.75
2022-12-25T06:31:09.163Z,8.93
2022-12-25T06:33:40.175Z,8.82
2022-12-25T06:36:22.376Z,8.25
2022-12-25T06:38:49.851Z,9.38
2022-12-25T06:41:22.373Z,8.75
2022-12-25T06:43:50.880Z,9.38
2022-12-25T06:46:18.881Z,8.80
2022-12-25T06:48:49.600Z,9.57
2022-12-25T06:51:25.616Z,9.15
2022-12-25T06:53:53.547Z,8.13
2022-12-25T06:56:26.908Z,8.63
2022-12-25T06:59:08.705Z,9.65
2022-12-25T07:05:08.288Z,8.73
2022-12-25T07:07:35.433Z,8.73
2022-12-25T07:10:05.710Z,9.55
2022-12-25T07:12:32.887Z,9.60
2022-12-25T07:15:03.030Z,9.38
2022-12-25T07:17:30.197Z,9.90
2022-12-25T07:19:57.653Z,10.52
2022-12-25T07:22:24.829Z,9.90
2022-12-25T07:24:52.053Z,10.75
2022-12-25T07:27:19.228Z,10.45
2022-12-25T07:29:46.460Z,10.98
2022-12-25T07:32:13.759Z,10.63
2022-12-25T07:34:41.059Z,10.80
2022-12-25T07:37:08.244Z,11.15
2022-12-25T07:39:36.661Z,10.95
2022-12-25T07:42:04.005Z,12.27
2022-12-25T07:44:31.157Z,11.18
2022-12-25T07:46:58.316Z,11.43
2022-12-25T07:49:25.541Z,10.77
2022-12-25T07:51:52.737Z,11.90
2022-12-25T07:54:22.675Z,12.00
2022-12-25T07:56:53.586Z,12.73
2022-12-25T07:59:21.379Z,12.35
2022-12-25T08:01:50.381Z,11.80
2022-12-25T08:06:45.156Z,11.43
2022-12-25T08:09:13.137Z,12.48
2022-12-25T08:14:32.054Z,13.13
2022-12-25T08:16:59.495Z,12.25
2022-12-25T08:19:52.234Z,13.52
2022-12-25T08:22:19.551Z,15.38
2022-12-25T08:24:47.182Z,14.73
2022-12-25T08:27:17.504Z,12.25
2022-12-25T08:29:49.133Z,13.15
2022-12-25T08:32:16.354Z,13.68
2022-12-25T08:34:43.650Z,13.38
2022-12-25T08:37:10.952Z,13.88
2022-12-25T08:39:38.238Z,13.30
2022-12-25T08:42:05.679Z,13.13
2022-12-25T08:44:33.102Z,13.65
2022-12-25T08:47:02.256Z,14.55
2022-12-25T08:49:29.604Z,14.63
2022-12-25T08:51:57.130Z,16.02
2022-12-25T08:54:25.297Z,14.05
2022-12-25T08:56:56.150Z,14.15
2022-12-25T08:59:29.566Z,13.48
2022-12-25T09:01:57.489Z,13.45
2022-12-25T09:04:25.217Z,14.07
2022-12-25T09:06:52.522Z,12.85
2022-12-25T09:09:19.752Z,12.35
2022-12-25T09:11:47.081Z,12.30
2022-12-25T09:14:14.440Z,12.05
2022-12-25T09:16:41.952Z,12.20
2022-12-25T09:19:09.521Z,11.95
2022-12-25T09:21:37.374Z,11.27
2022-12-25T09:24:05.455Z,12.00
2022-12-25T09:26:32.910Z,11.82
2022-12-25T09:29:00.411Z,12.50
2022-12-25T09:31:27.890Z,18.05
2022-12-25T09:33:59.681Z,15.38
2022-12-25T09:36:27.021Z,16.38
2022-12-25T09:38:57.510Z,14.25
2022-12-25T09:41:43.213Z,14.90
2022-12-25T09:44:19.701Z,16.10
2022-12-25T09:47:11.224Z,17.92
2022-12-25T09:50:17.894Z,16.75
2022-12-25T09:53:07.173Z,14.40
2022-12-25T09:58:11.237Z,15.93
2022-12-25T10:00:52.198Z,17.23
2022-12-25T10:03:35.456Z,17.63
2022-12-25T10:06:40.285Z,17.13
2022-12-25T10:09:25.887Z,16.75
2022-12-25T10:12:27.092Z,18.02
2022-12-25T10:15:22.669Z,18.70
2022-12-25T10:18:14.387Z,20.27
2022-12-25T10:24:38.382Z,20.08
2022-12-25T10:27:15.995Z,20.42
2022-12-25T10:29:45.524Z,20.00
2022-12-25T10:32:15.996Z,19.83
2022-12-25T10:34:46.118Z,21.15
2022-12-25T10:37:13.531Z,21.08
2022-12-25T10:39:46.406Z,20.67
2022-12-25T10:42:38.729Z,19.58
2022-12-25T10:45:10.508Z,19.25
2022-12-25T10:47:42.041Z,21.15
2022-12-25T10:50:23.017Z,20.55
2022-12-25T10:52:59.850Z,19.05
2022-12-25T10:55:29.505Z,19.48
2022-12-25T10:57:58.535Z,20.48
2022-12-25T11:00:28.289Z,19.83
2022-12-25T11:03:00.638Z,18.77
2022-12-25T11:09:20.245Z,19.63
2022-12-25T11:11:48.173Z,18.88
2022-12-25T11:14:20.739Z,20.10
2022-12-25T11:16:48.416Z,19.10
2022-12-25T11:19:31.382Z,19.25
2022-12-25T11:22:06.453Z,18.73
2022-12-25T11:24:35.139Z,19.23
2022-12-25T11:27:06.410Z,18.15
2022-12-25T11:29:49.210Z,19.30
2022-12-25T11:32:28.573Z,19.67
2022-12-25T11:37:43.919Z,19.75
2022-12-25T11:40:22.301Z,18.17
2022-12-25T11:43:07.622Z,17.77
2022-12-25T11:45:45.223Z,17.48
2022-12-25T11:48:28.084Z,16.00
2022-12-25T11:50:57.597Z,16.70
2022-12-25T11:53:44.978Z,17.20
2022-12-25T11:56:18.372Z,18.05
2022-12-25T11:59:13.654Z,17.52
2022-12-25T12:01:55.973Z,17.15
2022-12-25T12:04:36.912Z,16.50
2022-12-25T12:07:24.649Z,17.83
2022-12-25T12:10:17.836Z,20.05
2022-12-25T12:12:52.626Z,23.15
2022-12-25T12:15:39.292Z,20.80
2022-12-25T12:18:19.839Z,18.95
2022-12-25T12:20:58.986Z,17.70
2022-12-25T12:23:29.153Z,18.33
2022-12-25T12:25:56.988Z,15.80
2022-12-25T12:28:27.696Z,15.75
2022-12-25T12:31:03.981Z,15.55
2022-12-25T12:33:38.576Z,16.02
2022-12-25T12:36:06.878Z,15.75
2022-12-25T12:39:22.596Z,15.32
2022-12-25T12:41:50.622Z,16.58
2022-12-25T12:48:16.761Z,16.30
2022-12-25T12:57:27.170Z,16.27
2022-12-25T12:59:54.436Z,17.13
2022-12-25T13:02:59.973Z,17.63
2022-12-25T13:05:50.595Z,17.40
2022-12-25T13:08:29.220Z,17.38
2022-12-25T13:11:28.647Z,18.23
2022-12-25T13:13:58.626Z,17.33
2022-12-25T13:16:36.125Z,16.90
2022-12-25T13:19:14.147Z,16.02
2022-12-25T13:21:41.634Z,16.23
2022-12-25T13:24:21.050Z,18.08
2022-12-25T13:26:48.366Z,15.40
2022-12-25T13:29:35.603Z,15.68
2022-12-25T13:32:06.189Z,14.93
2022-12-25T13:34:41.361Z,15.73
2022-12-25T13:37:17.037Z,15.18
2022-12-25T13:39:57.498Z,15.80
2022-12-25T13:42:27.582Z,15.45
2022-12-25T13:44:57.809Z,15.80
2022-12-25T13:47:35.327Z,15.65
2022-12-25T13:50:13.991Z,15.55
2022-12-25T13:52:41.244Z,16.58
2022-12-25T13:55:14.897Z,16.52
2022-12-25T13:57:49.516Z,14.90
2022-12-25T14:00:38.560Z,14.48
2022-12-25T14:06:48.984Z,14.15
2022-12-25T14:09:16.759Z,14.88
2022-12-25T14:11:49.804Z,14.35
2022-12-25T14:14:23.810Z,15.10
2022-12-25T14:16:55.015Z,14.43
2022-12-25T14:19:33.627Z,14.90
2022-12-25T14:22:11.323Z,15.05
2022-12-25T14:24:40.435Z,15.15
2022-12-25T14:27:23.332Z,15.18
2022-12-25T14:29:53.324Z,15.00
2022-12-25T14:32:23.094Z,13.70
2022-12-25T14:41:34.286Z,14.18
2022-12-25T14:44:22.959Z,14.32
2022-12-25T14:46:51.975Z,14.30
2022-12-25T14:49:25.842Z,13.85
2022-12-25T14:51:53.831Z,13.50
2022-12-25T14:54:30.321Z,14.13
2022-12-25T14:57:02.978Z,15.27
2022-12-25T14:59:30.403Z,13.48
2022-12-25T15:05:37.654Z,12.38
2022-12-25T15:08:13.738Z,12.93
2022-12-25T15:10:59.450Z,12.63
2022-12-25T15:13:28.771Z,12.60
2022-12-25T15:16:06.967Z,13.07
2022-12-25T15:18:41.712Z,13.55
2022-12-25T15:21:36.508Z,13.30
2022-12-25T15:24:06.952Z,13.57
2022-12-25T15:26:34.373Z,12.95
2022-12-25T15:29:02.077Z,12.18
2022-12-25T15:31:31.837Z,13.40
2022-12-25T15:34:01.068Z,12.75
2022-12-25T15:36:29.081Z,13.73
2022-12-25T15:38:56.583Z,13.10
2022-12-25T15:41:54.696Z,13.18
2022-12-25T15:44:22.370Z,14.17
2022-12-25T15:46:49.970Z,14.15
2022-12-25T15:49:17.957Z,14.15
2022-12-25T15:51:46.194Z,15.45
2022-12-25T15:54:13.733Z,15.90
2022-12-25T15:56:49.259Z,13.90
2022-12-25T15:59:17.853Z,14.77
2022-12-25T16:01:53.568Z,15.25
2022-12-25T16:04:21.456Z,13.70
2022-12-25T16:06:49.354Z,14.27
2022-12-25T16:09:17.357Z,14.60
2022-12-25T16:11:44.697Z,13.98
2022-12-25T16:14:12.310Z,14.95
2022-12-25T16:16:40.232Z,13.63
2022-12-25T16:19:07.925Z,13.95
2022-12-25T16:21:42.108Z,13.73
2022-12-25T16:24:09.745Z,13.68
2022-12-25T22:23:26.942Z,26.10
2022-12-25T22:25:54.537Z,24.48
2022-12-25T22:28:25.828Z,24.77
2022-12-25T22:30:53.059Z,26.20
2022-12-25T22:33:22.304Z,24.10
2022-12-25T22:35:49.526Z,22.98
2022-12-25T22:38:16.759Z,23.58
2022-12-25T22:40:45.311Z,23.48
2022-12-25T22:43:12.552Z,22.20
2022-12-25T22:45:45.129Z,21.70
2022-12-25T22:48:12.390Z,21.15
2022-12-25T22:50:39.653Z,20.63
2022-12-25T22:53:09.613Z,20.98
2022-12-25T22:55:38.255Z,20.95
2022-12-25T22:58:06.529Z,20.30
2022-12-25T23:00:33.732Z,20.85
2022-12-25T23:06:48.929Z,19.80
2022-12-25T23:09:24.143Z,19.85
2022-12-25T23:12:48.412Z,19.30
2022-12-25T23:19:19.500Z,18.25
